Time;durP1;ratioP1;P1;durP2;ratioP2;P2;SDS_P1;SDS_P2;PMS_P1;PMS_P2;Temp;Humidity;BMP_temperature;BMP_pressure;BME280_temperature;BME280_humidity;BME280_pressure;Samples;Min_cycle;Max_cycle;Signal;HPM_P1;HPM_P2
2023/05/15 00:00:14;;;;;;;24.03;18.23;;;15.60;99.90;;;;;;5051341;28;20200;-81
2023/05/15 00:02:39;;;;;;;28.03;17.97;;;15.60;99.90;;;;;;5048547;28;20478;-81
2023/05/15 00:05:08;;;;;;;27.57;19.07;;;15.50;99.90;;;;;;5055310;28;20443;-81
2023/05/15 00:07:35;;;;;;;25.30;19.73;;;15.50;99.90;;;;;;5049514;28;20192;-82
2023/05/15 00:10:00;;;;;;;30.97;21.87;;;15.50;99.90;;;;;;5055970;28;20450;-82
2023/05/15 00:12:26;;;;;;;27.30;20.57;;;15.50;1.00;;;;;;5058085;28;20435;-82
2023/05/15 00:14:51;;;;;;;28.80;21.80;;;15.40;1.00;;;;;;5059132;28;20187;-81
2023/05/15 00:17:17;;;;;;;26.30;20.07;;;15.30;99.90;;;;;;5058349;28;20198;-80
2023/05/15 00:19:43;;;;;;;35.50;22.97;;;15.30;99.90;;;;;;5057150;28;20263;-81
2023/05/15 00:22:08;;;;;;;27.43;19.80;;;15.20;1.00;;;;;;5053683;28;20339;-81
2023/05/15 00:24:34;;;;;;;29.30;22.53;;;15.20;99.90;;;;;;5050898;28;20667;-80
2023/05/15 00:27:00;;;;;;;29.37;20.80;;;15.20;99.90;;;;;;5073467;28;20192;-79
2023/05/15 00:29:25;;;;;;;29.60;21.53;;;15.20;1.00;;;;;;5056173;28;20207;-80
2023/05/15 00:31:51;;;;;;;25.60;21.30;;;15.20;1.00;;;;;;5055883;28;20478;-82
2023/05/15 00:34:17;;;;;;;35.10;21.80;;;15.10;1.00;;;;;;5055542;28;20209;-82
2023/05/15 00:36:43;;;;;;;25.20;21.93;;;15.10;1.00;;;;;;5057322;28;20242;-81
2023/05/15 00:39:08;;;;;;;30.10;22.47;;;15.10;1.00;;;;;;5052576;28;20558;-79
2023/05/15 00:41:35;;;;;;;30.33;21.93;;;15.10;53.60;;;;;;5046071;28;20211;-83
2023/05/15 00:44:02;;;;;;;26.43;20.80;;;15.10;99.90;;;;;;5047701;28;20210;-81
2023/05/15 00:46:30;;;;;;;28.03;21.13;;;15.10;99.90;;;;;;5057247;28;20442;-82
2023/05/15 00:48:57;;;;;;;36.33;21.57;;;15.10;99.90;;;;;;5053265;28;20466;-81
2023/05/15 00:51:24;;;;;;;33.43;21.00;;;15.00;99.90;;;;;;5057689;28;20453;-81
2023/05/15 00:53:53;;;;;;;27.60;22.50;;;15.00;99.90;;;;;;5057748;28;20496;-82
2023/05/15 00:56:20;;;;;;;30.27;22.33;;;15.00;1.00;;;;;;5052664;28;20414;-81
2023/05/15 00:58:48;;;;;;;35.37;21.63;;;15.00;1.00;;;;;;5056269;28;20441;-81
2023/05/15 01:01:15;;;;;;;29.67;20.60;;;14.90;1.00;;;;;;5057355;28;20989;-79
2023/05/15 01:03:42;;;;;;;30.53;20.27;;;14.90;99.90;;;;;;5053159;28;20459;-79
2023/05/15 01:06:07;;;;;;;27.43;20.23;;;14.90;1.00;;;;;;5055317;28;20430;-80
2023/05/15 01:08:37;;;;;;;27.17;20.10;;;14.90;99.90;;;;;;5057900;28;20448;-82
2023/05/15 01:11:06;;;;;;;29.10;20.70;;;14.80;99.90;;;;;;5052156;28;20619;-82
2023/05/15 01:13:31;;;;;;;30.90;23.37;;;14.80;99.90;;;;;;5056477;28;20469;-82
2023/05/15 01:15:58;;;;;;;27.60;21.33;;;14.80;99.90;;;;;;5057568;28;20768;-80
2023/05/15 01:18:30;;;;;;;38.80;24.33;;;14.70;99.90;;;;;;5054169;28;20590;-82
2023/05/15 01:21:02;;;;;;;40.50;26.83;;;14.70;1.00;;;;;;5048586;28;20452;-80
2023/05/15 01:23:42;;;;;;;39.23;29.07;;;14.60;26.30;;;;;;5046445;28;20872;-81
2023/05/15 01:26:35;;;;;;;37.00;26.83;;;14.60;99.90;;;;;;5045412;28;21001;-81
2023/05/15 01:29:09;;;;;;;39.47;27.20;;;14.60;99.90;;;;;;5042092;28;20804;-82
2023/05/15 01:31:37;;;;;;;47.90;31.13;;;14.50;1.00;;;;;;5053953;28;20930;-81
2023/05/15 01:34:07;;;;;;;47.37;28.40;;;14.50;1.00;;;;;;5050649;28;20919;-82
2023/05/15 01:36:41;;;;;;;36.33;27.27;;;14.50;1.00;;;;;;5050323;28;20713;-82
2023/05/15 01:39:09;;;;;;;43.43;28.30;;;14.50;1.00;;;;;;5050553;28;20447;-80
2023/05/15 01:42:15;;;;;;;41.20;27.63;;;14.50;1.00;;;;;;5055421;28;20468;-79
2023/05/15 01:44:50;;;;;;;44.63;29.30;;;14.40;1.00;;;;;;5051929;28;21012;-80
2023/05/15 01:47:19;;;;;;;41.90;28.57;;;14.40;16.30;;;;;;5062408;28;20507;-79
2023/05/15 01:49:46;;;;;;;43.10;28.53;;;14.40;36.60;;;;;;5055442;28;20456;-81
2023/05/15 01:52:17;;;;;;;48.70;29.00;;;14.40;21.90;;;;;;5058915;28;20433;-81
2023/05/15 01:54:45;;;;;;;49.03;32.27;;;14.40;99.90;;;;;;5053105;28;21103;-79
2023/05/15 01:57:11;;;;;;;47.80;28.20;;;14.40;99.90;;;;;;5047723;28;20808;-80
2023/05/15 01:59:38;;;;;;;41.77;29.07;;;14.50;99.90;;;;;;5052412;28;20860;-81
2023/05/15 02:02:04;;;;;;;40.73;29.80;;;14.50;99.90;;;;;;5039015;28;20467;-82
2023/05/15 02:04:31;;;;;;;44.73;31.73;;;14.50;99.90;;;;;;5053857;28;20452;-80
2023/05/15 02:06:58;;;;;;;45.93;31.60;;;14.60;99.90;;;;;;5055223;28;20502;-80
2023/05/15 02:09:24;;;;;;;40.37;28.60;;;14.60;99.90;;;;;;5057135;28;20970;-82
2023/05/15 02:11:50;;;;;;;47.33;31.53;;;14.60;99.90;;;;;;5052768;28;20475;-80
2023/05/15 02:14:17;;;;;;;50.53;29.60;;;14.60;99.90;;;;;;5053679;28;20547;-81
2023/05/15 02:16:42;;;;;;;44.80;29.53;;;14.60;99.90;;;;;;5057077;28;20473;-82
2023/05/15 02:19:08;;;;;;;41.90;30.33;;;14.60;99.90;;;;;;5061576;28;20437;-81
2023/05/15 02:21:34;;;;;;;45.53;30.10;;;14.60;99.00;;;;;;5056326;28;20215;-80
2023/05/15 02:24:00;;;;;;;48.20;30.50;;;14.60;99.90;;;;;;5054804;28;20215;-81
2023/05/15 02:26:49;;;;;;;46.97;30.23;;;14.60;95.90;;;;;;5056514;28;20515;-81
2023/05/15 02:29:35;;;;;;;47.03;30.97;;;14.60;99.90;;;;;;5043448;28;20168;-81
2023/05/15 02:32:15;;;;;;;54.57;30.50;;;14.50;99.90;;;;;;5054101;28;20432;-81
2023/05/15 02:35:02;;;;;;;41.53;29.67;;;14.50;99.90;;;;;;5045034;28;20460;-80
2023/05/15 02:37:30;;;;;;;46.60;29.77;;;14.50;95.30;;;;;;5049902;28;20436;-82
2023/05/15 02:39:58;;;;;;;49.17;30.57;;;14.50;76.90;;;;;;5056198;28;20459;-81
2023/05/15 02:42:28;;;;;;;44.97;30.97;;;14.40;99.00;;;;;;5056273;28;20491;-82
2023/05/15 02:44:54;;;;;;;43.03;28.73;;;14.40;74.10;;;;;;5047518;28;20473;-81
2023/05/15 02:47:21;;;;;;;46.73;31.57;;;14.40;30.80;;;;;;5051025;28;20433;-80
2023/05/15 02:49:47;;;;;;;48.87;30.07;;;14.40;30.10;;;;;;5054088;28;20515;-80
2023/05/15 02:52:13;;;;;;;45.97;29.33;;;14.30;1.00;;;;;;5052906;28;20534;-82
2023/05/15 02:54:38;;;;;;;49.30;29.97;;;14.30;1.00;;;;;;5055833;28;20492;-81
2023/05/15 02:57:04;;;;;;;46.53;31.83;;;14.30;1.00;;;;;;5052095;28;20191;-81
2023/05/15 02:59:30;;;;;;;44.93;30.23;;;14.30;1.00;;;;;;5054757;28;20181;-80
2023/05/15 03:01:55;;;;;;;44.33;31.40;;;14.30;1.00;;;;;;5053815;28;20215;-82
2023/05/15 03:04:21;;;;;;;52.67;31.00;;;14.40;1.00;;;;;;5051552;28;20214;-80
2023/05/15 03:06:46;;;;;;;42.80;30.60;;;14.40;1.00;;;;;;5053353;28;20198;-81
2023/05/15 03:09:12;;;;;;;42.63;29.77;;;14.40;1.00;;;;;;5056412;28;20256;-80
2023/05/15 03:11:37;;;;;;;40.70;29.87;;;14.30;1.00;;;;;;5055125;28;20180;-83
2023/05/15 03:14:02;;;;;;;43.07;30.23;;;14.30;1.00;;;;;;5053578;28;20211;-81
2023/05/15 03:16:28;;;;;;;44.73;28.47;;;14.30;1.00;;;;;;5056931;28;20189;-82
2023/05/15 03:18:54;;;;;;;47.73;29.47;;;14.30;1.00;;;;;;5053742;28;20241;-82
2023/05/15 03:21:19;;;;;;;38.10;28.40;;;14.30;1.00;;;;;;5046634;28;20234;-81
2023/05/15 03:23:45;;;;;;;42.00;29.03;;;14.30;1.00;;;;;;5054240;28;20304;-81
2023/05/15 03:26:10;;;;;;;48.10;30.40;;;14.30;1.00;;;;;;5048063;28;20724;-78
2023/05/15 03:28:37;;;;;;;45.77;29.87;;;14.30;99.90;;;;;;5055631;28;20269;-81
2023/05/15 03:31:03;;;;;;;39.00;28.70;;;14.30;99.90;;;;;;5056050;28;20193;-79
2023/05/15 03:33:30;;;;;;;46.20;30.53;;;14.20;99.90;;;;;;5048476;28;20450;-82
2023/05/15 03:35:55;;;;;;;39.70;28.43;;;14.20;99.90;;;;;;5044556;28;20429;-81
2023/05/15 03:38:21;;;;;;;40.30;29.23;;;14.20;99.90;;;;;;5043624;28;20426;-81
2023/05/15 03:40:46;;;;;;;46.20;30.37;;;14.20;99.90;;;;;;5050606;28;20192;-80
2023/05/15 03:43:12;;;;;;;48.87;31.90;;;14.20;99.90;;;;;;5051590;28;20704;-78
2023/05/15 03:45:38;;;;;;;46.30;29.77;;;14.10;99.90;;;;;;5053182;28;20647;-81
2023/05/15 03:48:04;;;;;;;49.93;30.47;;;14.00;99.90;;;;;;5053119;28;20181;-82
2023/05/15 03:50:29;;;;;;;40.93;28.90;;;14.00;99.90;;;;;;5055023;28;20420;-82
2023/05/15 03:52:55;;;;;;;47.20;30.90;;;14.00;99.90;;;;;;5051396;28;20912;-81
2023/05/15 03:55:21;;;;;;;44.33;30.57;;;13.90;99.90;;;;;;5064850;28;20186;-80
2023/05/15 03:57:46;;;;;;;42.13;30.07;;;13.90;99.90;;;;;;5054259;28;20196;-81
2023/05/15 04:00:12;;;;;;;42.93;30.07;;;13.90;99.90;;;;;;5051796;28;20281;-82
2023/05/15 04:02:39;;;;;;;41.50;29.30;;;13.80;99.90;;;;;;5049974;28;20773;-81
2023/05/15 04:05:05;;;;;;;41.40;27.80;;;13.80;99.90;;;;;;5053414;28;20490;-82
2023/05/15 04:07:32;;;;;;;41.30;28.50;;;13.80;99.90;;;;;;5053062;28;20458;-81
2023/05/15 04:10:01;;;;;;;44.13;29.27;;;13.80;99.90;;;;;;5053392;28;20447;-80
2023/05/15 04:12:32;;;;;;;44.63;29.03;;;13.80;99.90;;;;;;5051886;28;20533;-81
2023/05/15 04:15:18;;;;;;;39.07;28.57;;;13.80;53.30;;;;;;5046838;28;20440;-80
2023/05/15 04:17:45;;;;;;;51.30;28.60;;;13.80;10.30;;;;;;5053884;28;20509;-81
2023/05/15 04:20:15;;;;;;;45.40;30.13;;;13.90;1.00;;;;;;5045022;28;20428;-79
2023/05/15 04:22:42;;;;;;;42.30;28.97;;;13.90;1.00;;;;;;5049161;28;20898;-80
2023/05/15 04:25:09;;;;;;;44.03;29.67;;;14.00;1.00;;;;;;5055272;28;20474;-79
2023/05/15 04:27:36;;;;;;;46.77;29.57;;;14.00;1.00;;;;;;5052501;28;20531;-79
2023/05/15 04:30:02;;;;;;;40.20;29.40;;;14.00;99.90;;;;;;5055780;28;20432;-81
2023/05/15 04:32:29;;;;;;;40.90;27.53;;;14.10;99.90;;;;;;5053935;28;20808;-80
2023/05/15 04:34:54;;;;;;;41.63;30.00;;;14.10;1.00;;;;;;5055263;28;20429;-81
2023/05/15 04:37:20;;;;;;;50.67;29.50;;;14.20;1.00;;;;;;5049948;28;20484;-82
2023/05/15 04:39:46;;;;;;;43.23;29.07;;;14.20;99.90;;;;;;5052913;28;20442;-80
2023/05/15 04:42:11;;;;;;;41.67;27.70;;;14.30;97.60;;;;;;5055241;28;20198;-82
2023/05/15 04:44:37;;;;;;;49.47;29.50;;;14.30;1.00;;;;;;5068537;28;20209;-79
2023/05/15 04:47:03;;;;;;;43.07;28.00;;;14.20;1.00;;;;;;5047831;28;20253;-82
2023/05/15 04:49:28;;;;;;;46.57;30.17;;;14.20;1.00;;;;;;5055207;28;20249;-80
2023/05/15 04:51:54;;;;;;;53.30;32.67;;;14.20;89.90;;;;;;5055930;28;20445;-82
2023/05/15 04:54:19;;;;;;;49.43;33.20;;;14.30;1.00;;;;;;5049999;28;20218;-81
2023/05/15 04:56:45;;;;;;;51.17;34.23;;;14.30;1.00;;;;;;5057613;28;20197;-80
2023/05/15 04:59:12;;;;;;;55.47;34.73;;;14.30;99.90;;;;;;5057486;28;20204;-80
2023/05/15 05:01:37;;;;;;;49.47;34.93;;;14.40;99.90;;;;;;5056085;28;20246;-82
2023/05/15 05:04:03;;;;;;;50.57;33.73;;;14.50;1.00;;;;;;5054590;28;20453;-81
2023/05/15 05:06:29;;;;;;;53.70;34.63;;;14.50;1.00;;;;;;5059620;28;20186;-80
2023/05/15 05:08:54;;;;;;;49.27;34.13;;;14.50;99.90;;;;;;5054927;28;20187;-81
2023/05/15 05:11:20;;;;;;;46.10;32.53;;;14.50;99.90;;;;;;5051980;28;20187;-82
2023/05/15 05:13:46;;;;;;;50.80;33.60;;;14.50;5.10;;;;;;5054257;28;20207;-80
2023/05/15 05:16:11;;;;;;;48.00;31.33;;;14.50;1.00;;;;;;5056682;28;20448;-81
2023/05/15 05:18:37;;;;;;;50.73;32.90;;;14.50;1.00;;;;;;5055642;28;20183;-82
2023/05/15 05:21:03;;;;;;;46.57;33.07;;;14.60;99.90;;;;;;5040282;28;20220;-79
2023/05/15 05:23:29;;;;;;;48.40;32.90;;;14.50;99.90;;;;;;5056605;28;20210;-82
2023/05/15 05:25:55;;;;;;;48.20;33.17;;;14.60;99.90;;;;;;5055800;28;20942;-80
2023/05/15 05:28:21;;;;;;;46.83;32.10;;;14.60;1.00;;;;;;5057776;28;20415;-82
2023/05/15 05:30:47;;;;;;;58.73;33.63;;;14.60;1.00;;;;;;5054233;28;20537;-81
2023/05/15 05:33:13;;;;;;;53.93;35.37;;;14.50;1.00;;;;;;5046867;28;20472;-82
2023/05/15 05:35:39;;;;;;;49.37;33.63;;;14.50;1.00;;;;;;5055986;28;20970;-79
2023/05/15 05:38:04;;;;;;;56.27;34.87;;;14.40;1.00;;;;;;5049269;28;20450;-80
2023/05/15 05:40:30;;;;;;;48.70;33.67;;;14.30;55.20;;;;;;5055350;28;20181;-83
2023/05/15 05:43:02;;;;;;;50.20;34.57;;;14.30;99.90;;;;;;5055686;28;20301;-81
2023/05/15 05:45:27;;;;;;;47.97;33.23;;;14.40;99.90;;;;;;5067269;28;20191;-81
2023/05/15 05:47:56;;;;;;;45.90;32.50;;;14.50;99.90;;;;;;5049855;28;20442;-82
2023/05/15 05:50:22;;;;;;;56.23;34.40;;;14.70;1.00;;;;;;5054626;28;20180;-82
2023/05/15 05:52:48;;;;;;;48.70;34.17;;;15.00;99.90;;;;;;5054046;28;20470;-82
2023/05/15 05:55:14;;;;;;;48.57;34.57;;;15.10;1.00;;;;;;5055495;28;20476;-80
2023/05/15 05:57:39;;;;;;;51.30;34.87;;;15.00;1.00;;;;;;5054149;28;20236;-80
2023/05/15 06:00:08;;;;;;;51.40;34.87;;;15.00;1.00;;;;;;5055236;28;20446;-81
2023/05/15 06:02:33;;;;;;;49.13;32.10;;;14.80;1.00;;;;;;5053322;28;20246;-80
2023/05/15 06:04:59;;;;;;;45.73;32.70;;;14.80;1.00;;;;;;5055984;28;20441;-80
2023/05/15 06:07:25;;;;;;;52.87;32.47;;;14.70;1.00;;;;;;5053983;28;20193;-82
2023/05/15 06:09:51;;;;;;;50.03;33.20;;;14.80;1.00;;;;;;5048352;28;20936;-82
2023/05/15 06:12:16;;;;;;;49.47;31.40;;;15.00;1.00;;;;;;5054089;28;20191;-81
2023/05/15 06:14:42;;;;;;;43.70;32.53;;;15.10;99.90;;;;;;5053819;28;20214;-82
2023/05/15 06:17:07;;;;;;;51.30;34.87;;;15.20;99.90;;;;;;5054826;28;20188;-80
2023/05/15 06:19:32;;;;;;;46.13;33.03;;;15.30;99.90;;;;;;5047975;28;20185;-81
2023/05/15 06:21:58;;;;;;;47.93;33.60;;;15.40;99.90;;;;;;5055026;28;20231;-80
2023/05/15 06:24:23;;;;;;;47.50;33.50;;;16.80;24.70;;;;;;5062531;28;20419;-82
2023/05/15 06:26:49;;;;;;;42.27;32.03;;;17.30;1.00;;;;;;5054660;28;20278;-83
2023/05/15 06:29:14;;;;;;;40.87;31.60;;;19.60;99.90;;;;;;5054777;28;20610;-80
2023/05/15 06:31:40;;;;;;;38.90;30.30;;;20.80;99.90;;;;;;5054397;28;20188;-83
2023/05/15 06:34:05;;;;;;;43.17;31.00;;;22.40;99.90;;;;;;5055228;28;20224;-83
2023/05/15 06:36:31;;;;;;;40.07;27.73;;;21.60;99.90;;;;;;5055799;28;20287;-82
2023/05/15 06:38:56;;;;;;;39.50;30.20;;;21.50;99.90;;;;;;5052540;28;20194;-83
2023/05/15 06:41:22;;;;;;;36.07;27.67;;;21.30;99.90;;;;;;5053222;28;20228;-81
2023/05/15 06:43:47;;;;;;;38.27;29.43;;;20.70;99.90;;;;;;5052614;28;20234;-82
2023/05/15 06:46:15;;;;;;;39.20;29.20;;;20.80;99.90;;;;;;5056492;28;20185;-81
2023/05/15 06:48:40;;;;;;;47.50;31.87;;;21.70;99.90;;;;;;5053848;28;20172;-83
2023/05/15 06:51:06;;;;;;;46.10;34.70;;;21.10;99.90;;;;;;5054024;28;20431;-83
2023/05/15 06:53:31;;;;;;;48.43;34.07;;;20.30;99.90;;;;;;5055176;28;20521;-79
2023/05/15 06:55:57;;;;;;;46.87;36.60;;;19.80;99.90;;;;;;5048575;28;20185;-81
2023/05/15 06:58:23;;;;;;;55.40;39.40;;;19.30;99.90;;;;;;5054118;28;20192;-82
2023/05/15 07:00:48;;;;;;;53.03;35.60;;;19.10;99.90;;;;;;5053597;28;20190;-82
2023/05/15 07:03:15;;;;;;;46.90;34.17;;;19.30;99.90;;;;;;5051403;28;20475;-81
2023/05/15 07:05:41;;;;;;;44.30;35.23;;;20.90;99.90;;;;;;5055578;28;20201;-83
2023/05/15 07:08:06;;;;;;;46.47;36.10;;;23.30;99.90;;;;;;5055023;28;20424;-83
2023/05/15 07:10:32;;;;;;;43.20;33.60;;;26.50;99.90;;;;;;5053746;28;20200;-83
2023/05/15 07:12:58;;;;;;;40.10;35.80;;;30.60;99.90;;;;;;5065482;28;20554;-83
2023/05/15 07:15:23;;;;;;;38.33;34.17;;;30.40;99.90;;;;;;5057099;28;20200;-82
2023/05/15 07:17:48;;;;;;;38.30;34.70;;;31.00;99.90;;;;;;5068876;28;20193;-83
2023/05/15 07:20:14;;;;;;;40.30;35.53;;;32.00;99.90;;;;;;5055423;28;20189;-82
2023/05/15 07:22:40;;;;;;;39.77;35.80;;;34.30;99.90;;;;;;5054464;28;20220;-84
2023/05/15 07:25:06;;;;;;;37.20;33.40;;;36.50;99.90;;;;;;5047324;28;20216;-83
2023/05/15 07:27:31;;;;;;;37.57;33.87;;;38.00;99.90;;;;;;5051014;28;20268;-84
2023/05/15 07:29:57;;;;;;;39.23;35.63;;;37.60;99.90;;;;;;5047135;28;20194;-84
2023/05/15 07:32:22;;;;;;;39.70;35.60;;;35.20;99.90;;;;;;5052240;28;20181;-80
2023/05/15 07:34:48;;;;;;;38.30;34.70;;;33.80;99.90;;;;;;5053188;28;20548;-84
2023/05/15 07:37:13;;;;;;;39.13;35.13;;;33.60;99.90;;;;;;5053688;28;20296;-82
2023/05/15 07:39:39;;;;;;;36.57;32.70;;;34.70;99.90;;;;;;5053834;28;20181;-82
2023/05/15 07:42:04;;;;;;;37.60;33.77;;;36.60;99.90;;;;;;5060839;28;20220;-83
2023/05/15 07:44:30;;;;;;;37.30;33.67;;;37.80;99.90;;;;;;5053982;28;20284;-84
2023/05/15 07:46:57;;;;;;;35.77;32.10;;;38.40;99.90;;;;;;5054919;28;20178;-83
2023/05/15 07:49:22;;;;;;;34.97;31.80;;;38.80;99.90;;;;;;5057576;28;20235;-84
2023/05/15 07:51:48;;;;;;;36.47;33.07;;;39.00;99.90;;;;;;5061887;28;20416;-82
2023/05/15 07:54:14;;;;;;;35.77;32.63;;;39.80;99.90;;;;;;5057515;28;20205;-83
2023/05/15 07:56:40;;;;;;;34.63;31.40;;;41.10;99.90;;;;;;5057596;28;20200;-84
2023/05/15 07:59:06;;;;;;;32.30;28.93;;;41.80;99.90;;;;;;5053423;28;20444;-86
2023/05/15 08:01:32;;;;;;;30.87;28.07;;;42.60;99.90;;;;;;5061319;28;20185;-84
2023/05/15 08:03:57;;;;;;;31.37;28.47;;;43.00;99.90;;;;;;5055035;28;20456;-85
2023/05/15 08:06:23;;;;;;;29.90;27.50;;;43.50;99.90;;;;;;5058725;28;20207;-84
2023/05/15 08:08:48;;;;;;;28.80;26.37;;;44.00;99.90;;;;;;5057709;28;20254;-83
2023/05/15 08:11:14;;;;;;;28.97;26.67;;;44.10;99.90;;;;;;5054273;28;20178;-83
2023/05/15 08:13:40;;;;;;;28.67;26.13;;;43.60;99.90;;;;;;5059865;28;20201;-81
2023/05/15 08:16:05;;;;;;;30.00;26.93;;;43.70;99.90;;;;;;5056930;28;21306;-82
2023/05/15 08:18:33;;;;;;;29.80;27.10;;;43.80;99.90;;;;;;5054474;28;20181;-84
2023/05/15 08:20:59;;;;;;;29.70;27.20;;;43.80;99.90;;;;;;5051755;28;20178;-81
2023/05/15 08:23:24;;;;;;;29.17;26.77;;;43.60;99.00;;;;;;5057210;28;20467;-84
2023/05/15 08:25:50;;;;;;;28.87;26.33;;;42.70;96.40;;;;;;5059232;28;20192;-84
2023/05/15 08:28:15;;;;;;;29.97;26.93;;;42.30;94.70;;;;;;5058475;28;20262;-84
2023/05/15 08:30:41;;;;;;;28.07;25.40;;;42.20;94.00;;;;;;5058161;28;20245;-83
2023/05/15 08:33:06;;;;;;;30.90;27.97;;;42.80;94.10;;;;;;5062887;28;20229;-84
2023/05/15 08:35:32;;;;;;;29.07;26.47;;;43.50;94.50;;;;;;5051290;28;20186;-84
2023/05/15 08:37:58;;;;;;;27.77;25.43;;;43.80;93.20;;;;;;5056373;28;20247;-83
2023/05/15 08:40:23;;;;;;;30.07;27.00;;;43.80;92.20;;;;;;5058721;28;20207;-84
2023/05/15 08:42:54;;;;;;;26.70;24.40;;;44.10;91.40;;;;;;5054239;28;20213;-84
2023/05/15 08:45:22;;;;;;;26.43;23.93;;;44.70;91.40;;;;;;5054866;28;20182;-85
2023/05/15 08:47:48;;;;;;;27.47;25.17;;;45.10;90.80;;;;;;5052656;28;20440;-84
2023/05/15 08:50:16;;;;;;;27.30;24.70;;;45.40;89.80;;;;;;5058885;28;20446;-83
2023/05/15 08:52:45;;;;;;;24.93;23.03;;;45.70;88.30;;;;;;5054435;28;20194;-84
2023/05/15 08:55:13;;;;;;;25.77;23.30;;;45.70;86.60;;;;;;5059770;28;20408;-83
2023/05/15 08:57:40;;;;;;;24.87;22.30;;;45.40;83.60;;;;;;5058567;28;20478;-84
2023/05/15 09:00:07;;;;;;;23.70;21.67;;;45.40;83.30;;;;;;5056056;28;20440;-84
2023/05/15 09:02:36;;;;;;;23.20;21.20;;;45.40;79.20;;;;;;5057206;28;20439;-84
2023/05/15 09:05:02;;;;;;;24.10;21.90;;;45.40;79.40;;;;;;5059360;28;20515;-83
2023/05/15 09:07:32;;;;;;;25.43;23.27;;;45.50;77.40;;;;;;5057363;28;20886;-83
2023/05/15 09:09:58;;;;;;;24.70;22.57;;;45.40;74.90;;;;;;5054785;28;20194;-84
2023/05/15 09:12:25;;;;;;;25.97;23.37;;;45.20;73.30;;;;;;5057439;28;20515;-82
2023/05/15 09:14:51;;;;;;;28.53;24.50;;;45.00;71.20;;;;;;5054636;28;20444;-85
2023/05/15 09:17:16;;;;;;;26.60;24.10;;;44.50;69.60;;;;;;5049081;28;20447;-84
2023/05/15 09:19:42;;;;;;;26.20;23.90;;;44.30;67.60;;;;;;5057912;28;20596;-84
2023/05/15 09:22:22;;;;;;;25.00;22.53;;;43.70;65.00;;;;;;5056318;28;20182;-84
2023/05/15 09:24:48;;;;;;;27.37;24.67;;;43.70;65.00;;;;;;5058319;28;20204;-84
2023/05/15 09:27:14;;;;;;;25.80;23.50;;;43.70;64.20;;;;;;5054533;28;20455;-84
2023/05/15 09:29:39;;;;;;;28.13;25.73;;;43.60;63.80;;;;;;5056847;28;20451;-84
2023/05/15 09:32:14;;;;;;;27.03;24.70;;;43.70;65.00;;;;;;5059313;28;20224;-84
2023/05/15 09:34:41;;;;;;;24.90;22.77;;;43.50;63.00;;;;;;5055928;28;20276;-85
2023/05/15 09:37:09;;;;;;;28.23;25.83;;;43.30;62.40;;;;;;5056729;28;20448;-82
2023/05/15 09:39:42;;;;;;;28.97;26.43;;;42.90;60.30;;;;;;5057630;28;20480;-84
2023/05/15 09:42:12;;;;;;;26.57;24.27;;;43.10;62.40;;;;;;5070422;28;20444;-83
2023/05/15 09:44:42;;;;;;;27.17;24.90;;;43.10;61.20;;;;;;5055040;28;20460;-83
2023/05/15 09:47:12;;;;;;;29.77;26.80;;;42.80;59.60;;;;;;5057098;28;20451;-83
2023/05/15 09:49:39;;;;;;;27.60;25.10;;;42.70;60.00;;;;;;5055141;28;20964;-83
2023/05/15 09:52:08;;;;;;;28.00;25.27;;;42.60;59.60;;;;;;5051698;28;20462;-82
2023/05/15 09:54:34;;;;;;;31.00;27.83;;;42.30;58.20;;;;;;5060078;28;20478;-84
2023/05/15 09:57:08;;;;;;;29.37;26.67;;;41.60;56.80;;;;;;5059931;28;20444;-84
2023/05/15 09:59:34;;;;;;;27.87;25.27;;;41.20;72.60;;;;;;5054184;28;20465;-84
2023/05/15 10:01:59;;;;;;;26.73;24.27;;;41.10;56.40;;;;;;5055013;28;20926;-85
2023/05/15 10:04:25;;;;;;;30.80;27.50;;;41.10;56.00;;;;;;5050703;28;20748;-83
2023/05/15 10:06:52;;;;;;;27.97;25.33;;;41.00;56.10;;;;;;5054215;28;20235;-84
2023/05/15 10:09:17;;;;;;;27.03;24.53;;;41.10;56.60;;;;;;5053025;28;20432;-84
2023/05/15 10:11:52;;;;;;;26.80;24.30;;;41.10;57.20;;;;;;5055934;28;20551;-82
2023/05/15 10:14:20;;;;;;;25.90;23.40;;;40.90;56.00;;;;;;5051437;28;20189;-84
2023/05/15 10:16:46;;;;;;;27.57;24.87;;;40.90;57.10;;;;;;5053163;28;20463;-83
2023/05/15 10:19:12;;;;;;;26.50;23.80;;;41.00;56.90;;;;;;5054036;28;20959;-83
2023/05/15 10:21:40;;;;;;;27.10;24.50;;;40.80;56.20;;;;;;5056046;28;20253;-83
2023/05/15 10:24:07;;;;;;;25.80;23.17;;;40.80;56.00;;;;;;5051567;28;20844;-85
2023/05/15 10:26:37;;;;;;;25.90;23.37;;;40.70;56.10;;;;;;5052563;28;20432;-85
2023/05/15 10:29:16;;;;;;;24.60;22.13;;;40.20;54.00;;;;;;5050982;28;20843;-82
2023/05/15 10:31:42;;;;;;;26.73;21.47;;;39.70;52.50;;;;;;5052894;28;20895;-84
2023/05/15 10:34:09;;;;;;;23.10;20.60;;;39.20;51.30;;;;;;5054519;28;20456;-84
2023/05/15 10:36:36;;;;;;;21.37;19.07;;;39.00;52.10;;;;;;5054146;28;20436;-85
2023/05/15 10:39:04;;;;;;;21.17;19.03;;;39.10;52.90;;;;;;5060555;28;20441;-86
2023/05/15 10:44:58;;;;;;;21.47;19.37;;;39.20;52.30;;;;;;5050531;23;20477;-86
2023/05/15 10:47:25;;;;;;;20.77;18.77;;;38.90;50.70;;;;;;5048101;28;20440;-85
2023/05/15 10:49:51;;;;;;;22.20;19.90;;;38.70;50.30;;;;;;5042026;28;20432;-86
2023/05/15 10:52:16;;;;;;;21.13;19.00;;;38.20;49.00;;;;;;5046096;28;20455;-85
2023/05/15 10:54:42;;;;;;;20.77;18.70;;;38.30;49.60;;;;;;5040988;28;20205;-86
2023/05/15 10:57:08;;;;;;;20.90;18.90;;;38.10;49.80;;;;;;5041440;28;20269;-85
2023/05/15 10:59:34;;;;;;;20.37;18.47;;;38.10;49.60;;;;;;5037722;28;20181;-84
2023/05/15 11:02:37;;;;;;;19.50;17.60;;;38.10;50.80;;;;;;5035824;28;20186;-85
2023/05/15 11:05:03;;;;;;;19.87;17.60;;;37.90;49.60;;;;;;5011902;28;20516;-86
2023/05/15 11:07:29;;;;;;;23.00;20.80;;;38.10;49.50;;;;;;5040933;28;20441;-85
2023/05/15 11:09:55;;;;;;;21.33;19.33;;;38.30;50.30;;;;;;5039494;28;20181;-85
2023/05/15 11:12:23;;;;;;;20.70;18.80;;;38.20;50.10;;;;;;5032022;28;20460;-86
2023/05/15 11:14:55;;;;;;;21.70;19.50;;;38.40;50.90;;;;;;5038495;28;20421;-86
2023/05/15 11:17:24;;;;;;;22.37;18.33;;;38.60;51.90;;;;;;5027589;28;20444;-84
2023/05/15 11:19:50;;;;;;;20.37;18.47;;;38.60;51.50;;;;;;5037685;28;20445;-86
2023/05/15 11:22:17;;;;;;;20.00;18.10;;;38.60;51.30;;;;;;5037742;28;20663;-86
2023/05/15 11:24:53;;;;;;;19.40;17.40;;;38.50;51.60;;;;;;5037853;28;20290;-85
2023/05/15 11:27:20;;;;;;;18.43;16.73;;;38.60;66.00;;;;;;5031174;28;20444;-85
2023/05/15 11:30:12;;;;;;;19.80;17.80;;;38.80;52.60;;;;;;5039313;28;20428;-85
2023/05/15 11:33:02;;;;;;;18.17;16.03;;;38.40;50.20;;;;;;5034793;28;20817;-85
2023/05/15 11:35:42;;;;;;;19.90;17.93;;;37.60;48.40;;;;;;5042789;28;20427;-86
2023/05/15 11:38:13;;;;;;;21.23;16.60;;;36.60;44.50;;;;;;5042283;28;20475;-86
2023/05/15 11:40:57;;;;;;;17.93;16.03;;;35.80;43.00;;;;;;5042722;28;20457;-85
2023/05/15 11:43:24;;;;;;;21.60;19.30;;;35.30;42.40;;;;;;5037130;28;20812;-85
2023/05/15 11:45:56;;;;;;;20.03;18.07;;;35.30;43.80;;;;;;5040242;28;20512;-84
2023/05/15 11:48:24;;;;;;;21.10;18.50;;;35.00;42.90;;;;;;5037565;28;20556;-85
2023/05/15 11:50:52;;;;;;;20.90;18.70;;;35.00;44.60;;;;;;5032394;28;20449;-87
2023/05/15 11:53:19;;;;;;;22.93;19.63;;;34.80;44.30;;;;;;5040438;28;20469;-84
2023/05/15 11:55:45;;;;;;;22.43;20.03;;;34.40;43.80;;;;;;5041090;28;20425;-86
2023/05/15 11:58:21;;;;;;;23.30;20.80;;;34.50;44.50;;;;;;5038202;28;20934;-85
2023/05/15 12:00:48;;;;;;;23.30;20.90;;;34.50;44.80;;;;;;5039015;28;20551;-84
2023/05/15 12:03:26;;;;;;;22.80;20.17;;;34.50;45.90;;;;;;5027082;28;20968;-86
2023/05/15 12:05:53;;;;;;;24.20;21.03;;;34.40;45.80;;;;;;5038958;28;20567;-85
2023/05/15 12:08:22;;;;;;;23.80;20.43;;;34.10;45.60;;;;;;5033199;28;20444;-84
2023/05/15 12:10:48;;;;;;;23.23;20.80;;;33.90;46.20;;;;;;5039516;28;21137;-85
2023/05/15 12:13:16;;;;;;;21.63;19.63;;;34.20;47.60;;;;;;5031415;28;20482;-86
2023/05/15 12:15:44;;;;;;;23.47;21.17;;;34.10;47.50;;;;;;5030055;28;20432;-84
2023/05/15 12:18:10;;;;;;;25.60;21.30;;;34.00;48.00;;;;;;5033769;28;20479;-84
2023/05/15 12:20:37;;;;;;;22.53;20.13;;;33.90;49.00;;;;;;5032309;28;20455;-84
2023/05/15 12:23:05;;;;;;;22.27;19.93;;;33.90;49.70;;;;;;5036881;28;20555;-84
2023/05/15 12:25:34;;;;;;;22.43;20.27;;;33.70;49.00;;;;;;5025244;28;20453;-84
2023/05/15 12:28:01;;;;;;;22.07;19.73;;;33.70;49.40;;;;;;5036922;28;20475;-85
2023/05/15 12:30:29;;;;;;;22.03;20.03;;;33.90;50.80;;;;;;5037347;28;20467;-85
2023/05/15 12:33:07;;;;;;;24.83;18.27;;;34.00;51.80;;;;;;5035473;28;20472;-83